Buckeye, AZ

11:46 AM MST on September 21, 2017 (GMT -0700)
Buckeye Municipal

Weather History for KBXK - November, 2013

Change the Weather History Date:

Tuesday, November 26, 2013

  Actual Average (KGYR) Record (KGYR)
Temperature  
Mean Temperature 54 °F -  
Max Temperature 66 °F 68 °F 78 °F (1998)
Min Temperature 42 °F 43 °F 35 °F (2010)
Degree Days  
Heating Degree Days 11    
Growing Degree Days 4 (Base 50)    
Moisture  
Dew Point 42 °F    
Average Humidity 67    
Maximum Humidity 100    
Minimum Humidity 35    
Precipitation  
Precipitation 0.00 in - - ()
Sea Level Pressure  
Sea Level Pressure 30.21 in    
Wind  
Wind Speed 7 mph (NE)    
Max Wind Speed 15 mph    
Max Gust Speed 18 mph    
Visibility 10 miles    
Events      
Averages and records for this station are not official NWS values.
T = Trace of Precipitation, MM = Missing Value Source: NWS Daily Summary

Daily Weather History Graph

Daily Weather History Graph

Search for Another Location

Airport or City:

Trip Planner

Search our weather history database for the weather conditions in past years. The results will help you decide how hot, cold, wet, or windy it might be!

Date:

Astronomy

Nov. 26, 2013 Rise Set
Actual Time 7:12 AM MST 5:23 PM MST
Civil Twilight 6:45 AM MST 5:50 PM MST
Nautical Twilight 6:15 AM MST 6:21 PM MST
Astronomical Twilight 5:45 AM MST 6:50 PM MST
Moon 12:38 AM MST (11/26) 1:14 PM MST (11/26)
Length of Visible Light 11h 04m
Length of Day
10h 11m
Last Quarter, 40% of the Moon is Illuminated
Nov 26
Last Quarter
Dec 2
New
Dec 9
First Quarter
Dec 17
Full
Dec 25
Last Quarter

Hourly Weather History & Observations

Time (MST) Temp. Windchill Dew Point Humidity Pressure Visibility Wind Dir Wind Speed Gust Speed Precip Events Conditions
12:15 AM 48.2 °F - 48.2 °F 100% 30.23 in 10.0 mi NNW 5.8 mph - N/A   Clear
12:35 AM 48.2 °F - 48.2 °F 100% 30.23 in 10.0 mi Calm Calm - N/A   Clear
12:55 AM 46.4 °F 43.5 °F 46.4 °F 100% 30.23 in 10.0 mi NNW 5.8 mph - N/A   Clear
1:15 AM 46.4 °F 44.3 °F 46.4 °F 100% 30.23 in 10.0 mi NNW 4.6 mph - N/A   Clear
1:35 AM 46.4 °F 44.3 °F 46.4 °F 100% 30.23 in 7.0 mi NW 4.6 mph - N/A   Clear
1:55 AM 46.4 °F 43.5 °F 46.4 °F 100% 30.23 in 7.0 mi NNW 5.8 mph - N/A   Clear
2:15 AM 46.4 °F 42.9 °F 46.4 °F 100% 30.23 in 8.0 mi NNW 6.9 mph - N/A   Clear
2:35 AM 46.4 °F 43.5 °F 46.4 °F 100% 30.24 in 8.0 mi North 5.8 mph - N/A   Clear
2:55 AM 46.4 °F 43.5 °F 46.4 °F 100% 30.24 in 8.0 mi North 5.8 mph - N/A   Clear
3:15 AM 44.6 °F 41.4 °F 44.6 °F 100% 30.24 in 8.0 mi North 5.8 mph - N/A   Clear
3:35 AM 44.6 °F 41.4 °F 44.6 °F 100% 30.23 in 10.0 mi NNW 5.8 mph - N/A   Clear
3:55 AM 44.6 °F 40.7 °F 44.6 °F 100% 30.23 in 10.0 mi North 6.9 mph - N/A   Clear
4:15 AM 44.6 °F 42.2 °F 44.6 °F 100% 30.23 in 10.0 mi NNW 4.6 mph - N/A   Clear
4:35 AM 44.6 °F - 44.6 °F 100% 30.24 in 9.0 mi Calm Calm - N/A   Clear
4:55 AM 44.6 °F - 44.6 °F 100% 30.24 in 8.0 mi Calm Calm - N/A   Clear
5:15 AM 44.6 °F 42.2 °F 44.6 °F 100% 30.25 in 10.0 mi North 4.6 mph - N/A   Clear
5:35 AM 44.6 °F 42.2 °F 44.6 °F 100% 30.25 in 10.0 mi NNW 4.6 mph - N/A   Clear
5:55 AM 44.6 °F 42.2 °F 44.6 °F 100% 30.25 in 10.0 mi NNE 4.6 mph - N/A   Clear
6:15 AM 42.8 °F 40.1 °F 42.8 °F 100% 30.25 in 10.0 mi NNW 4.6 mph - N/A   Clear
6:35 AM 42.8 °F 40.1 °F 42.8 °F 100% 30.25 in 10.0 mi NNW 4.6 mph - N/A   Clear
6:55 AM 42.8 °F 41.1 °F 42.8 °F 100% 30.26 in 10.0 mi NNW 3.5 mph - N/A   Clear
7:15 AM 42.8 °F 40.1 °F 42.8 °F 100% 30.26 in 10.0 mi NNW 4.6 mph - N/A   Clear
7:35 AM 42.8 °F 38.6 °F 42.8 °F 100% 30.27 in 10.0 mi North 6.9 mph - N/A   Clear
7:55 AM 44.6 °F 41.4 °F 44.6 °F 100% 30.27 in 10.0 mi North 5.8 mph - N/A   Clear
8:15 AM 46.4 °F 44.3 °F 46.4 °F 100% 30.28 in 10.0 mi NNW 4.6 mph - N/A   Clear
8:35 AM 48.2 °F - 48.2 °F 100% 30.28 in 10.0 mi North 4.6 mph - N/A   Clear
8:55 AM 51.8 °F - 51.8 °F 100% 30.28 in 10.0 mi Calm Calm - N/A   Clear
9:15 AM 53.6 °F - 48.2 °F 82% 30.28 in 10.0 mi East 6.9 mph - N/A   Clear
9:35 AM 55.4 °F - 44.6 °F 67% 30.28 in 10.0 mi East 9.2 mph - N/A   Clear
9:55 AM 57.2 °F - 44.6 °F 63% 30.28 in 10.0 mi East 12.7 mph - N/A   Clear
10:15 AM 59.0 °F - 44.6 °F 59% 30.29 in 10.0 mi East 11.5 mph - N/A   Clear
10:35 AM 59.0 °F - 44.6 °F 59% 30.28 in 10.0 mi East 10.4 mph - N/A   Clear
10:55 AM 59.0 °F - 44.6 °F 59% 30.28 in 10.0 mi East 8.1 mph - N/A   Clear
11:15 AM 60.8 °F - 41.0 °F 48% 30.27 in 10.0 mi East 15.0 mph - N/A   Clear
11:35 AM 62.6 °F - 39.2 °F 42% 30.26 in 10.0 mi East 13.8 mph 17.3 mph N/A   Clear
11:55 AM 62.6 °F - 39.2 °F 42% 30.25 in 10.0 mi East 12.7 mph - N/A   Clear
12:15 PM 62.6 °F - 41.0 °F 45% 30.25 in 10.0 mi East 12.7 mph 18.4 mph N/A   Clear
12:35 PM 64.4 °F - 41.0 °F 42% 30.24 in 10.0 mi East 13.8 mph - N/A   Clear
12:55 PM 64.4 °F - 39.2 °F 40% 30.22 in 10.0 mi ENE 12.7 mph - N/A   Clear
1:15 PM 64.4 °F - 41.0 °F 42% 30.21 in 10.0 mi East 10.4 mph - N/A   Clear
1:35 PM 64.4 °F - 39.2 °F 40% 30.20 in 10.0 mi East 10.4 mph - N/A   Clear
1:55 PM 66.2 °F - 41.0 °F 40% 30.19 in 10.0 mi ENE 11.5 mph - N/A   Clear
2:15 PM 66.2 °F - 39.2 °F 37% 30.18 in 10.0 mi ENE 13.8 mph - N/A   Clear
2:35 PM 66.2 °F - 39.2 °F 37% 30.17 in 10.0 mi East 10.4 mph - N/A   Clear
2:55 PM 66.2 °F - 39.2 °F 37% 30.17 in 10.0 mi ENE 12.7 mph - N/A   Clear
3:15 PM 66.2 °F - 39.2 °F 37% 30.17 in 10.0 mi ENE 11.5 mph - N/A   Clear
3:35 PM 66.2 °F - 37.4 °F 35% 30.16 in 10.0 mi ENE 8.1 mph - N/A   Clear
3:55 PM 66.2 °F - 39.2 °F 37% 30.15 in 10.0 mi East 9.2 mph - N/A   Clear
4:15 PM 66.2 °F - 39.2 °F 37% 30.15 in 10.0 mi East 5.8 mph - N/A   Clear
4:35 PM 66.2 °F - 41.0 °F 40% 30.15 in 10.0 mi East 4.6 mph - N/A   Clear
4:55 PM 64.4 °F - 42.8 °F 45% 30.14 in 10.0 mi East 4.6 mph - N/A   Clear
5:15 PM 62.6 °F - 44.6 °F 52% 30.14 in 10.0 mi NE 6.9 mph - N/A   Clear
5:35 PM 60.8 °F - 44.6 °F 55% 30.14 in 10.0 mi NNE 6.9 mph - N/A   Clear
5:55 PM 60.8 °F - 41.0 °F 48% 30.14 in 10.0 mi NE 6.9 mph - N/A   Clear
6:15 PM 60.8 °F - 39.2 °F 45% 30.14 in 10.0 mi NE 6.9 mph - N/A   Scattered Clouds
6:35 PM 59.0 °F - 39.2 °F 48% 30.14 in 10.0 mi NE 9.2 mph - N/A   Scattered Clouds
6:55 PM 59.0 °F - 41.0 °F 51% 30.15 in 10.0 mi NE 5.8 mph - N/A   Clear
7:15 PM 59.0 °F - 37.4 °F 45% 30.15 in 10.0 mi NE 9.2 mph - N/A   Clear
7:35 PM 59.0 °F - 39.2 °F 48% 30.15 in 10.0 mi NE 6.9 mph - N/A   Partly Cloudy
7:55 PM 57.2 °F - 39.2 °F 51% 30.15 in 10.0 mi ENE 9.2 mph - N/A   Partly Cloudy
8:15 PM 59.0 °F - 37.4 °F 45% 30.15 in 10.0 mi ENE 10.4 mph - N/A   Partly Cloudy
8:35 PM 57.2 °F - 37.4 °F 48% 30.16 in 10.0 mi ENE 11.5 mph - N/A   Clear
8:55 PM 57.2 °F - 37.4 °F 48% 30.16 in 10.0 mi ENE 12.7 mph - N/A   Clear
9:15 PM 57.2 °F - 37.4 °F 48% 30.16 in 10.0 mi ENE 12.7 mph - N/A   Partly Cloudy
9:35 PM 57.2 °F - 37.4 °F 48% 30.16 in 10.0 mi ENE 10.4 mph - N/A   Mostly Cloudy
9:55 PM 57.2 °F - 37.4 °F 48% 30.16 in 10.0 mi ENE 10.4 mph - N/A   Overcast
10:15 PM 57.2 °F - 37.4 °F 48% 30.16 in 10.0 mi ENE 8.1 mph - N/A   Overcast
10:35 PM 59.0 °F - 37.4 °F 45% 30.17 in 10.0 mi East 11.5 mph - N/A   Overcast
10:55 PM 59.0 °F - 35.6 °F 42% 30.17 in 10.0 mi East 10.4 mph - N/A   Overcast
11:15 PM 55.4 °F - 39.2 °F 54% 30.17 in 10.0 mi East 10.4 mph - N/A   Mostly Cloudy
11:35 PM 53.6 °F - 39.2 °F 58% 30.17 in 10.0 mi ENE 10.4 mph - N/A   Scattered Clouds
11:55 PM 53.6 °F - 39.2 °F 58% 30.16 in 10.0 mi East 8.1 mph - N/A   Partly Cloudy